createdAt,value
2022-10-13T00:01:36.054Z,101871.75
2022-10-13T00:06:42.645Z,101856.44
2022-10-13T00:11:48.920Z,101866.75
2022-10-13T00:16:57.778Z,101868.91
2022-10-13T00:22:03.840Z,101864.03
2022-10-13T00:27:09.711Z,101858.06
2022-10-13T00:32:17.442Z,101864.84
2022-10-13T00:37:23.541Z,101859.03
2022-10-13T00:42:29.604Z,101865.91
2022-10-13T00:47:46.279Z,101865.59
2022-10-13T00:52:54.281Z,101861.25
2022-10-13T00:58:24.875Z,101864.22
2022-10-13T01:03:33.317Z,101853.16
2022-10-13T01:08:39.406Z,101849.09
2022-10-13T01:13:57.431Z,101847.91
2022-10-13T01:19:22.697Z,101851.41
2022-10-13T01:24:49.440Z,101846.00
2022-10-13T01:30:18.087Z,101841.22
2022-10-13T01:35:34.732Z,101839.50
2022-10-13T01:40:46.710Z,101831.63
2022-10-13T01:46:00.317Z,101836.38
2022-10-13T01:51:08.699Z,101834.88
2022-10-13T01:56:15.152Z,101835.47
2022-10-13T02:01:51.126Z,101823.56
2022-10-13T02:07:11.405Z,101814.69
2022-10-13T02:12:26.394Z,101816.09
2022-10-13T02:17:34.497Z,101815.13
2022-10-13T02:22:45.472Z,101817.25
2022-10-13T02:27:52.159Z,101809.66
2022-10-13T02:32:59.702Z,101815.84
2022-10-13T02:38:06.065Z,101811.03
2022-10-13T02:43:12.019Z,101804.56
2022-10-13T02:48:19.539Z,101810.56
2022-10-13T02:53:25.624Z,101806.91
2022-10-13T02:58:32.611Z,101801.41
2022-10-13T03:03:42.821Z,101794.94
2022-10-13T03:08:48.967Z,101795.53
2022-10-13T03:13:54.997Z,101788.78
2022-10-13T03:19:02.346Z,101783.25
2022-10-13T03:24:08.875Z,101781.56
2022-10-13T03:29:16.121Z,101799.69
2022-10-13T03:34:23.551Z,101793.84
2022-10-13T03:39:29.912Z,101793.44
2022-10-13T03:44:35.969Z,101795.13
2022-10-13T03:49:43.459Z,101790.72
2022-10-13T03:54:49.529Z,101794.91
2022-10-13T03:59:56.882Z,101795.38
2022-10-13T04:05:08.489Z,101790.78
2022-10-13T04:10:14.520Z,101798.34
2022-10-13T04:15:21.642Z,101793.25
2022-10-13T04:20:29.733Z,101799.09
2022-10-13T04:25:37.752Z,101794.34
2022-10-13T04:30:49.097Z,101800.31
2022-10-13T04:35:57.044Z,101801.53
2022-10-13T04:41:05.216Z,101808.72
2022-10-13T04:46:14.852Z,101799.91
2022-10-13T04:51:24.714Z,101803.75
2022-10-13T04:56:31.114Z,101801.50
2022-10-13T05:01:41.331Z,101798.03
2022-10-13T05:07:16.346Z,101795.53
2022-10-13T05:12:21.373Z,101795.38
2022-10-13T05:17:29.755Z,101792.25
2022-10-13T05:22:42.413Z,101800.69
2022-10-13T05:27:48.421Z,101796.66
2022-10-13T05:32:56.204Z,101797.63
2022-10-13T05:38:03.638Z,101799.50
2022-10-13T05:43:09.620Z,101804.59
2022-10-13T05:48:15.631Z,101811.41
2022-10-13T05:53:25.786Z,101810.31
2022-10-13T05:58:33.476Z,101816.72
2022-10-13T06:03:40.778Z,101816.63
2022-10-13T06:08:48.598Z,101815.50
2022-10-13T06:13:54.625Z,101811.72
2022-10-13T06:19:01.028Z,101813.63
2022-10-13T06:24:08.990Z,101809.75
2022-10-13T06:29:16.505Z,101811.13
2022-10-13T06:34:22.643Z,101815.59
2022-10-13T06:39:30.143Z,101813.34
2022-10-13T06:44:39.808Z,101810.09
2022-10-13T06:49:45.758Z,101802.59
2022-10-13T06:54:53.585Z,101804.59
2022-10-13T06:59:59.697Z,101792.78
2022-10-13T07:05:06.544Z,101791.34
2022-10-13T07:10:15.021Z,101784.66
2022-10-13T07:15:21.130Z,101776.28
2022-10-13T07:20:28.661Z,101767.06
2022-10-13T07:25:36.313Z,101779.47
2022-10-13T07:30:43.216Z,101777.16
2022-10-13T07:35:49.225Z,101770.53
2022-10-13T07:40:56.599Z,101766.56
2022-10-13T07:46:04.939Z,101760.00
2022-10-13T07:51:14.451Z,101751.88
2022-10-13T07:56:21.875Z,101748.56
2022-10-13T08:01:27.953Z,101753.16
2022-10-13T08:06:34.226Z,101743.97
2022-10-13T08:11:42.454Z,101731.28
2022-10-13T08:16:51.358Z,101734.03
2022-10-13T08:22:00.276Z,101733.22
2022-10-13T08:27:14.181Z,101732.56
2022-10-13T08:32:22.012Z,101722.34
2022-10-13T08:37:28.521Z,101719.91
2022-10-13T08:42:36.953Z,101717.44
2022-10-13T08:47:48.430Z,101708.09
2022-10-13T08:52:58.761Z,101709.84
2022-10-13T08:58:31.311Z,101701.28
2022-10-13T09:03:48.826Z,101691.81
2022-10-13T09:08:58.776Z,101686.66
2022-10-13T09:14:09.965Z,101696.22
2022-10-13T09:19:23.235Z,101678.91
2022-10-13T09:24:29.556Z,101668.44
2022-10-13T09:29:37.328Z,101670.19
2022-10-13T09:34:43.495Z,101665.00
2022-10-13T09:40:03.781Z,101655.44
2022-10-13T09:45:19.302Z,101646.66
2022-10-13T09:50:28.560Z,101646.41
2022-10-13T09:55:36.602Z,101641.16
2022-10-13T10:00:45.117Z,101633.28
2022-10-13T10:05:55.906Z,101626.31
2022-10-13T10:11:03.341Z,101610.63
2022-10-13T10:16:20.748Z,101599.25
2022-10-13T10:21:37.854Z,101587.91
2022-10-13T10:26:56.728Z,101593.09
2022-10-13T10:32:29.181Z,101595.63
2022-10-13T10:38:05.376Z,101588.59
2022-10-13T10:43:43.356Z,101586.69
2022-10-13T10:48:58.806Z,101577.94
2022-10-13T10:54:28.399Z,101587.50
2022-10-13T10:59:52.156Z,101571.81
2022-10-13T11:05:05.370Z,101565.66
2022-10-13T11:10:22.811Z,101565.53
2022-10-13T11:15:33.922Z,101554.97
2022-10-13T11:21:02.158Z,101540.97
2022-10-13T11:26:42.829Z,101520.91
2022-10-13T11:31:55.607Z,101508.63
2022-10-13T11:37:18.875Z,101504.38
2022-10-13T11:43:11.964Z,101493.78
2022-10-13T11:48:51.840Z,101498.81
2022-10-13T11:54:15.213Z,101507.28
2022-10-13T11:59:28.671Z,101503.84
2022-10-13T12:04:34.930Z,101490.78
2022-10-13T12:09:52.518Z,101489.94
2022-10-13T12:15:04.363Z,101491.53
2022-10-13T12:20:24.398Z,101477.50
2022-10-13T12:25:34.024Z,101473.13
2022-10-13T12:30:40.147Z,101460.59
2022-10-13T12:35:46.320Z,101465.06
2022-10-13T12:40:55.364Z,101454.66
2022-10-13T12:46:04.410Z,101450.41
2022-10-13T12:51:22.037Z,101439.13
2022-10-13T12:56:33.011Z,101444.34
2022-10-13T13:01:39.187Z,101428.66
2022-10-13T13:06:56.812Z,101430.38
2022-10-13T13:12:29.092Z,101425.94
2022-10-13T13:17:57.289Z,101419.84
2022-10-13T15:36:25.684Z,101355.19
2022-10-13T15:41:31.839Z,101347.59
2022-10-13T15:46:49.147Z,101352.09
2022-10-13T15:52:07.093Z,101353.97
2022-10-13T15:57:13.390Z,101360.19
2022-10-13T16:02:19.810Z,101357.75
2022-10-13T16:07:27.850Z,101359.63
2022-10-13T16:12:34.216Z,101353.69
2022-10-13T16:17:40.770Z,101352.91
2022-10-13T16:22:48.424Z,101352.09
2022-10-13T16:27:54.590Z,101353.88
2022-10-13T16:33:00.608Z,101355.81
2022-10-13T16:38:08.089Z,101351.50
2022-10-13T16:43:14.320Z,101345.63
2022-10-13T16:48:27.657Z,101351.81
2022-10-13T16:53:36.008Z,101356.97
2022-10-13T16:58:45.420Z,101357.84
2022-10-13T17:03:53.539Z,101350.97
2022-10-13T17:09:03.472Z,101349.25
2022-10-13T17:14:10.670Z,101344.97
2022-10-13T17:19:17.588Z,101343.25
2022-10-13T17:24:26.856Z,101327.69
2022-10-13T17:29:33.327Z,101324.31
2022-10-13T17:34:41.201Z,101327.78
2022-10-13T17:39:50.331Z,101333.84
2022-10-13T17:44:59.166Z,101338.22
2022-10-13T17:50:06.942Z,101329.53
2022-10-13T17:55:15.153Z,101325.22
2022-10-13T18:00:22.439Z,101320.03
2022-10-13T18:05:29.413Z,101317.44
2022-10-13T18:11:03.621Z,101317.47
2022-10-13T18:16:08.574Z,101302.75
2022-10-13T18:21:17.901Z,101301.88
2022-10-13T18:26:29.195Z,101303.63
2022-10-13T18:31:38.988Z,101306.19
2022-10-13T18:36:49.000Z,101296.69
2022-10-13T18:41:59.446Z,101303.63
2022-10-13T18:47:14.199Z,101301.91
2022-10-13T18:52:21.166Z,101298.44
2022-10-13T18:57:29.843Z,101300.16
2022-10-13T19:02:36.545Z,101303.63
2022-10-13T19:07:43.644Z,101307.09
2022-10-13T19:12:52.482Z,101304.50
2022-10-13T19:17:59.697Z,101301.00
2022-10-13T19:23:08.160Z,101297.56
2022-10-13T19:28:17.818Z,101293.25
2022-10-13T19:33:25.033Z,101292.38
2022-10-13T19:38:33.302Z,101295.81
2022-10-13T19:43:41.200Z,101293.22
2022-10-13T19:48:48.781Z,101294.06
2022-10-13T19:53:56.036Z,101300.13
2022-10-13T19:59:06.173Z,101298.34
2022-10-13T20:04:13.917Z,101299.19
2022-10-13T20:09:23.046Z,101297.47
2022-10-13T20:14:31.272Z,101289.63
2022-10-13T20:19:37.426Z,101281.84
2022-10-13T20:24:43.634Z,101275.78
2022-10-13T20:29:51.172Z,101280.00
2022-10-13T20:34:57.277Z,101277.41
2022-10-13T20:40:03.595Z,101279.16
2022-10-13T20:45:12.982Z,101273.91
2022-10-13T20:50:19.054Z,101271.34
2022-10-13T20:55:24.946Z,101272.19
2022-10-13T21:00:32.380Z,101272.19
2022-10-13T21:05:38.662Z,101261.78
2022-10-13T21:10:45.141Z,101270.34
2022-10-13T21:15:53.150Z,101271.91
2022-10-13T21:21:05.946Z,101268.47
2022-10-13T21:26:14.383Z,101258.16
2022-10-13T21:31:26.783Z,101271.84
2022-10-13T21:36:34.275Z,101267.44
